Terminal Aerodrome Forecast
Issued by NWS

Home | Current Version | Previous Version | Text Only | Print | Product List | Glossary On
Versions: 1 2 3 4 5 6 7 8 9 10 11 12 13 14
000
FTUS44 KEPZ 070536
TAFDMN
TAF
KDMN 070536Z 0706/0806 29010KT P6SM FEW080 BKN250
     FM071600 07009KT P6SM SCT070 BKN100 BKN200
     FM072200 26009KT P6SM SCT050 BKN090 OVC180=

USA.gov is the U.S. government's official web portal to all federal, state and local government web resources and services.